Agate Beach, Washington
Current Conditions -  °F | °C
As of 7:53 PM on Thursday 18 Dec 2014 (Local Time) from KCLM Reporting Station
Light Rain Light Rain  
Wind Chill:   Ceiling: 7500
Heat Index:   Visibility: 10mi
Dew Point:   Wind: 0mph
Humidity: 90%   Direction: NA
Pressure: 29.59"   Gusts: NA
Location:  48.1359°N, 123.734°W
Report Text: KCLM 190353Z AUTO 00000KT 10SM -RA SCT055 OVC075 07/06 A2959 RMK AO2 RAB02E19B46 SLP021 P0000 T00720056 TSNO
Loading
Personal Weather Stations






























Interactive Weather Map New forecast layout! Learn more

10-Day Weather Forecast

Advertisements
Track Severe Weather on mobile